FFT7425 KCLT-KJFK
Flight info
| Callsign | FFT7425 |
|---|---|
| Flight time | 1h 17m |
| Altitude | 37000 |
| Route | BARMY5 TYI Q64 SAWED Q108 SIE CAMRN4 |
| Aircraft | A320/M-SDE3FGHIRWY/LB1 |
Departure
| Time | 2026-05-07 02:29 |
|---|---|
| Airport | Charlotte Douglas International Airport (KCLT) |
Arrival
| Time | 2026-05-07 03:47 |
|---|---|
| Airport | John F. Kennedy International Airport (KJFK) |
| Time | Latitude | Longitude | Altitude | Speed | Heading |
|---|---|---|---|---|---|
| 2026-05-07 02:06 | 35.21912 | -80.94464 | 732 ft | 0 kts | 283° |
| 2026-05-07 02:07 | 35.21913 | -80.94464 | 733 ft | 0 kts | 283° |
| 2026-05-07 02:10 | 35.21912 | -80.94464 | 732 ft | 0 kts | 283° |
| 2026-05-07 02:20 | 35.21912 | -80.94463 | 732 ft | 1 kts | 283° |
| 2026-05-07 02:20 | 35.21910 | -80.94446 | 760 ft | 2 kts | 278° |
| 2026-05-07 02:20 | 35.21909 | -80.94429 | 749 ft | 1 kts | 266° |
| 2026-05-07 02:20 | 35.21910 | -80.94412 | 734 ft | 2 kts | 244° |
| 2026-05-07 02:21 | 35.21921 | -80.94398 | 730 ft | 2 kts | 192° |
| 2026-05-07 02:21 | 35.21933 | -80.94396 | 731 ft | 1 kts | 174° |
| 2026-05-07 02:21 | 35.21934 | -80.94396 | 732 ft | 0 kts | 174° |
| 2026-05-07 02:23 | 35.21874 | -80.94390 | 732 ft | 18 kts | 176° |
| 2026-05-07 02:23 | 35.21750 | -80.94380 | 732 ft | 17 kts | 175° |
| 2026-05-07 02:23 | 35.21670 | -80.94353 | 732 ft | 7 kts | 122° |
| 2026-05-07 02:24 | 35.21655 | -80.94315 | 731 ft | 5 kts | 128° |
| 2026-05-07 02:24 | 35.21626 | -80.94211 | 732 ft | 19 kts | 71° |
| 2026-05-07 02:24 | 35.21711 | -80.94073 | 731 ft | 21 kts | 49° |
| 2026-05-07 02:24 | 35.21809 | -80.93939 | 732 ft | 19 kts | 47° |
| 2026-05-07 02:25 | 35.21901 | -80.93813 | 732 ft | 21 kts | 48° |
| 2026-05-07 02:25 | 35.22008 | -80.93705 | 733 ft | 16 kts | 5° |
| 2026-05-07 02:25 | 35.22093 | -80.93724 | 733 ft | 15 kts | 356° |
| 2026-05-07 02:25 | 35.22223 | -80.93733 | 733 ft | 22 kts | 355° |
| 2026-05-07 02:26 | 35.22366 | -80.93742 | 733 ft | 13 kts | 9° |
| 2026-05-07 02:26 | 35.22388 | -80.93724 | 733 ft | 0 kts | 50° |
| 2026-05-07 02:28 | 35.22389 | -80.93724 | 733 ft | 0 kts | 50° |
| 2026-05-07 02:28 | 35.22400 | -80.93657 | 735 ft | 17 kts | 103° |
| 2026-05-07 02:28 | 35.22289 | -80.93595 | 736 ft | 21 kts | 202° |
| 2026-05-07 02:28 | 35.22112 | -80.93588 | 736 ft | 41 kts | 175° |
| 2026-05-07 02:29 | 35.21585 | -80.93543 | 736 ft | 108 kts | 175° |
| 2026-05-07 02:29 | 35.20639 | -80.93463 | 739 ft | 161 kts | 177° |
| 2026-05-07 02:29 | 35.19521 | -80.93374 | 1305 ft | 160 kts | 178° |
| 2026-05-07 02:29 | 35.18427 | -80.93277 | 1970 ft | 159 kts | 181° |
| 2026-05-07 02:30 | 35.17238 | -80.93079 | 2324 ft | 185 kts | 178° |
| 2026-05-07 02:30 | 35.15901 | -80.92762 | 2821 ft | 206 kts | 175° |
| 2026-05-07 02:30 | 35.14463 | -80.92354 | 3363 ft | 217 kts | 174° |
| 2026-05-07 02:30 | 35.14276 | -80.92299 | 3434 ft | 219 kts | 173° |
| 2026-05-07 02:31 | 35.12778 | -80.91817 | 4120 ft | 224 kts | 176° |
| 2026-05-07 02:31 | 35.11217 | -80.91574 | 4696 ft | 235 kts | 184° |
| 2026-05-07 02:31 | 35.09518 | -80.91575 | 5210 ft | 251 kts | 187° |
| 2026-05-07 02:31 | 35.07739 | -80.91536 | 5961 ft | 262 kts | 176° |
| 2026-05-07 02:32 | 35.06023 | -80.90697 | 6675 ft | 282 kts | 149° |
| 2026-05-07 02:32 | 35.04747 | -80.88795 | 7314 ft | 304 kts | 117° |
| 2026-05-07 02:32 | 35.04431 | -80.86032 | 7561 ft | 319 kts | 82° |
| 2026-05-07 02:32 | 35.05008 | -80.83500 | 8811 ft | 324 kts | 70° |
| 2026-05-07 02:33 | 35.05848 | -80.80913 | 9567 ft | 331 kts | 66° |
| 2026-05-07 02:33 | 35.06792 | -80.78319 | 10201 ft | 340 kts | 64° |
| 2026-05-07 02:33 | 35.07806 | -80.75609 | 10427 ft | 363 kts | 65° |
| 2026-05-07 02:33 | 35.08866 | -80.72730 | 10823 ft | 378 kts | 65° |
| 2026-05-07 02:34 | 35.09919 | -80.69768 | 11480 ft | 383 kts | 66° |
| 2026-05-07 02:34 | 35.10960 | -80.66751 | 12179 ft | 387 kts | 66° |
| 2026-05-07 02:34 | 35.11994 | -80.63699 | 12879 ft | 391 kts | 67° |
| 2026-05-07 02:34 | 35.13028 | -80.60614 | 13644 ft | 394 kts | 67° |
| 2026-05-07 02:35 | 35.14068 | -80.57504 | 14255 ft | 399 kts | 67° |
| 2026-05-07 02:35 | 35.15126 | -80.54347 | 14798 ft | 404 kts | 66° |
| 2026-05-07 02:35 | 35.16200 | -80.51146 | 15314 ft | 409 kts | 65° |
| 2026-05-07 02:35 | 35.17268 | -80.47966 | 15764 ft | 414 kts | 65° |
| 2026-05-07 02:36 | 35.18381 | -80.44663 | 15932 ft | 416 kts | 65° |
| 2026-05-07 02:36 | 35.19482 | -80.41383 | 15960 ft | 416 kts | 65° |
| 2026-05-07 02:36 | 35.20582 | -80.38100 | 15973 ft | 416 kts | 65° |
| 2026-05-07 02:36 | 35.21676 | -80.34829 | 15989 ft | 416 kts | 65° |
| 2026-05-07 02:37 | 35.22771 | -80.31555 | 15995 ft | 415 kts | 65° |
| 2026-05-07 02:37 | 35.23865 | -80.28290 | 16014 ft | 415 kts | 65° |
| 2026-05-07 02:37 | 35.24962 | -80.25010 | 16023 ft | 415 kts | 65° |
| 2026-05-07 02:37 | 35.26050 | -80.21745 | 16031 ft | 415 kts | 65° |
| 2026-05-07 02:38 | 35.27129 | -80.18503 | 16038 ft | 415 kts | 65° |
| 2026-05-07 02:38 | 35.28228 | -80.15203 | 16038 ft | 414 kts | 65° |
| 2026-05-07 02:38 | 35.29312 | -80.11940 | 16051 ft | 414 kts | 65° |
| 2026-05-07 02:38 | 35.30386 | -80.08680 | 16048 ft | 414 kts | 66° |
| 2026-05-07 02:39 | 35.31411 | -80.05375 | 16052 ft | 414 kts | 68° |
| 2026-05-07 02:39 | 35.32386 | -80.02053 | 16041 ft | 415 kts | 68° |
| 2026-05-07 02:39 | 35.33338 | -79.98716 | 16038 ft | 415 kts | 69° |
| 2026-05-07 02:39 | 35.34281 | -79.95384 | 16036 ft | 415 kts | 69° |
| 2026-05-07 02:40 | 35.35224 | -79.92066 | 16022 ft | 414 kts | 69° |
| 2026-05-07 02:40 | 35.36184 | -79.88720 | 16004 ft | 414 kts | 69° |
| 2026-05-07 02:40 | 35.37149 | -79.85391 | 15999 ft | 414 kts | 69° |
| 2026-05-07 02:40 | 35.38121 | -79.82055 | 16179 ft | 417 kts | 69° |
| 2026-05-07 02:41 | 35.39100 | -79.78697 | 16808 ft | 420 kts | 68° |
| 2026-05-07 02:41 | 35.40086 | -79.75314 | 17435 ft | 423 kts | 68° |
| 2026-05-07 02:41 | 35.41071 | -79.71941 | 17998 ft | 428 kts | 68° |
| 2026-05-07 02:41 | 35.42072 | -79.68504 | 18517 ft | 432 kts | 67° |
| 2026-05-07 02:42 | 35.43088 | -79.65007 | 19011 ft | 436 kts | 67° |
| 2026-05-07 02:42 | 35.44111 | -79.61486 | 19501 ft | 440 kts | 67° |
| 2026-05-07 02:42 | 35.45141 | -79.57931 | 19990 ft | 445 kts | 67° |
| 2026-05-07 02:42 | 35.46179 | -79.54340 | 20493 ft | 449 kts | 68° |
| 2026-05-07 02:43 | 35.46870 | -79.51939 | 20821 ft | 452 kts | 68° |
| 2026-05-07 02:43 | 35.48271 | -79.47045 | 21469 ft | 457 kts | 68° |
| 2026-05-07 02:43 | 35.49331 | -79.43347 | 21958 ft | 461 kts | 68° |
| 2026-05-07 02:43 | 35.50035 | -79.40890 | 22262 ft | 464 kts | 68° |
| 2026-05-07 02:44 | 35.51112 | -79.37137 | 22760 ft | 467 kts | 68° |
| 2026-05-07 02:44 | 35.52209 | -79.33308 | 22951 ft | 469 kts | 68° |
| 2026-05-07 02:44 | 35.53293 | -79.29525 | 22991 ft | 469 kts | 68° |
| 2026-05-07 02:44 | 35.54371 | -79.25743 | 22990 ft | 469 kts | 68° |
| 2026-05-07 02:45 | 35.55444 | -79.21972 | 22997 ft | 469 kts | 68° |
| 2026-05-07 02:45 | 35.56523 | -79.18179 | 23001 ft | 469 kts | 68° |
| 2026-05-07 02:45 | 35.57599 | -79.14396 | 22995 ft | 469 kts | 68° |
| 2026-05-07 02:45 | 35.58676 | -79.10608 | 22998 ft | 469 kts | 68° |
| 2026-05-07 02:46 | 35.59751 | -79.06828 | 22994 ft | 469 kts | 68° |
| 2026-05-07 02:46 | 35.60843 | -79.02987 | 22996 ft | 468 kts | 68° |
| 2026-05-07 02:46 | 35.61917 | -78.99200 | 22994 ft | 467 kts | 68° |
| 2026-05-07 02:46 | 35.62989 | -78.95418 | 22990 ft | 467 kts | 68° |
| 2026-05-07 02:47 | 35.64054 | -78.91663 | 22987 ft | 467 kts | 68° |
| 2026-05-07 02:47 | 35.65125 | -78.87888 | 22975 ft | 467 kts | 68° |
| 2026-05-07 02:47 | 35.66196 | -78.84120 | 22972 ft | 467 kts | 68° |
| 2026-05-07 02:47 | 35.67266 | -78.80350 | 22970 ft | 467 kts | 68° |
| 2026-05-07 02:48 | 35.68330 | -78.76584 | 22955 ft | 467 kts | 68° |
| 2026-05-07 02:48 | 35.69405 | -78.72767 | 22949 ft | 467 kts | 68° |
| 2026-05-07 02:48 | 35.70450 | -78.69039 | 22951 ft | 466 kts | 68° |
| 2026-05-07 02:48 | 35.71507 | -78.65257 | 22970 ft | 465 kts | 68° |
| 2026-05-07 02:49 | 35.72563 | -78.61485 | 22947 ft | 465 kts | 68° |
| 2026-05-07 02:49 | 35.73608 | -78.57746 | 22951 ft | 466 kts | 68° |
| 2026-05-07 02:49 | 35.74670 | -78.53943 | 22950 ft | 466 kts | 68° |
| 2026-05-07 02:49 | 35.75723 | -78.50169 | 23316 ft | 469 kts | 68° |
| 2026-05-07 02:50 | 35.76786 | -78.46363 | 23772 ft | 472 kts | 68° |
| 2026-05-07 02:50 | 35.77860 | -78.42530 | 24170 ft | 475 kts | 68° |
| 2026-05-07 02:50 | 35.78941 | -78.38670 | 24553 ft | 478 kts | 68° |
| 2026-05-07 02:50 | 35.80025 | -78.34789 | 24924 ft | 481 kts | 68° |
| 2026-05-07 02:51 | 35.81111 | -78.30864 | 25292 ft | 484 kts | 68° |
| 2026-05-07 02:51 | 35.82185 | -78.26969 | 25642 ft | 486 kts | 69° |
| 2026-05-07 02:51 | 35.83277 | -78.23006 | 26004 ft | 489 kts | 69° |
| 2026-05-07 02:51 | 35.84373 | -78.19030 | 26355 ft | 492 kts | 69° |
| 2026-05-07 02:52 | 35.85474 | -78.15030 | 26685 ft | 494 kts | 69° |
| 2026-05-07 02:52 | 35.86575 | -78.11028 | 27036 ft | 497 kts | 69° |
| 2026-05-07 02:52 | 35.87694 | -78.06950 | 27368 ft | 499 kts | 69° |
| 2026-05-07 02:52 | 35.88809 | -78.02879 | 27707 ft | 502 kts | 69° |
| 2026-05-07 02:53 | 35.89925 | -77.98799 | 28057 ft | 504 kts | 69° |
| 2026-05-07 02:53 | 35.91053 | -77.94674 | 28255 ft | 510 kts | 69° |
| 2026-05-07 02:53 | 35.92190 | -77.90519 | 28561 ft | 512 kts | 69° |
| 2026-05-07 02:53 | 35.93342 | -77.86305 | 28860 ft | 515 kts | 69° |
| 2026-05-07 02:54 | 35.94480 | -77.82143 | 29144 ft | 518 kts | 69° |
| 2026-05-07 02:54 | 35.95662 | -77.77997 | 29432 ft | 519 kts | 64° |
| 2026-05-07 02:54 | 35.97241 | -77.74013 | 29710 ft | 516 kts | 54° |
| 2026-05-07 02:54 | 35.99251 | -77.70382 | 29961 ft | 512 kts | 45° |
| 2026-05-07 02:55 | 36.01660 | -77.67165 | 30189 ft | 506 kts | 36° |
| 2026-05-07 02:55 | 36.04451 | -77.64383 | 30419 ft | 500 kts | 27° |
| 2026-05-07 02:55 | 36.07270 | -77.61918 | 30629 ft | 502 kts | 27° |
| 2026-05-07 02:55 | 36.10143 | -77.59390 | 30889 ft | 504 kts | 27° |
| 2026-05-07 02:56 | 36.13010 | -77.56849 | 31055 ft | 507 kts | 27° |
| 2026-05-07 02:56 | 36.15869 | -77.54299 | 31245 ft | 509 kts | 27° |
| 2026-05-07 02:56 | 36.18738 | -77.51730 | 31549 ft | 508 kts | 27° |
| 2026-05-07 02:56 | 36.21569 | -77.49196 | 31852 ft | 507 kts | 26° |
| 2026-05-07 02:57 | 36.24459 | -77.46613 | 32157 ft | 506 kts | 26° |
| 2026-05-07 02:57 | 36.27285 | -77.44090 | 32459 ft | 506 kts | 26° |
| 2026-05-07 02:57 | 36.30160 | -77.41524 | 32751 ft | 505 kts | 25° |
| 2026-05-07 02:57 | 36.33016 | -77.38973 | 33094 ft | 504 kts | 25° |
| 2026-05-07 02:58 | 36.35848 | -77.36442 | 33414 ft | 503 kts | 25° |
| 2026-05-07 02:58 | 36.38688 | -77.33899 | 33725 ft | 502 kts | 24° |
| 2026-05-07 02:58 | 36.41521 | -77.31363 | 34031 ft | 501 kts | 24° |
| 2026-05-07 02:58 | 36.44271 | -77.28771 | 34302 ft | 511 kts | 31° |
| 2026-05-07 02:59 | 36.46858 | -77.25581 | 34539 ft | 517 kts | 35° |
| 2026-05-07 02:59 | 36.49371 | -77.22373 | 34765 ft | 517 kts | 35° |
| 2026-05-07 02:59 | 36.51866 | -77.19159 | 35027 ft | 517 kts | 35° |
| 2026-05-07 02:59 | 36.54352 | -77.15940 | 35305 ft | 516 kts | 35° |
| 2026-05-07 03:00 | 36.56808 | -77.12754 | 35499 ft | 516 kts | 34° |
| 2026-05-07 03:00 | 36.59325 | -77.09492 | 35708 ft | 516 kts | 34° |
| 2026-05-07 03:00 | 36.61780 | -77.06314 | 35920 ft | 516 kts | 34° |
| 2026-05-07 03:00 | 36.64272 | -77.03088 | 36127 ft | 515 kts | 34° |
| 2026-05-07 03:01 | 36.66756 | -76.99873 | 36331 ft | 515 kts | 34° |
| 2026-05-07 03:01 | 36.69238 | -76.96660 | 36522 ft | 515 kts | 34° |
| 2026-05-07 03:01 | 36.71728 | -76.93440 | 36711 ft | 515 kts | 33° |
| 2026-05-07 03:01 | 36.74127 | -76.90337 | 36879 ft | 515 kts | 33° |
| 2026-05-07 03:02 | 36.79169 | -76.83794 | 36952 ft | 514 kts | 34° |
| 2026-05-07 03:02 | 36.84080 | -76.77388 | 36950 ft | 512 kts | 34° |
| 2026-05-07 03:03 | 36.89033 | -76.70924 | 36946 ft | 512 kts | 34° |
| 2026-05-07 03:03 | 36.93960 | -76.64488 | 36922 ft | 512 kts | 34° |
| 2026-05-07 03:04 | 36.98891 | -76.58039 | 36937 ft | 513 kts | 34° |
| 2026-05-07 03:04 | 37.03795 | -76.51607 | 36931 ft | 514 kts | 34° |
| 2026-05-07 03:05 | 37.08720 | -76.45130 | 36910 ft | 513 kts | 34° |
| 2026-05-07 03:05 | 37.13639 | -76.38639 | 36938 ft | 513 kts | 34° |
| 2026-05-07 03:06 | 37.18545 | -76.32157 | 36940 ft | 513 kts | 34° |
| 2026-05-07 03:06 | 37.23457 | -76.25653 | 36933 ft | 513 kts | 34° |
| 2026-05-07 03:07 | 37.28359 | -76.19165 | 36929 ft | 513 kts | 34° |
| 2026-05-07 03:07 | 37.33278 | -76.12633 | 36908 ft | 513 kts | 34° |
| 2026-05-07 03:08 | 37.38177 | -76.06109 | 36957 ft | 513 kts | 34° |
| 2026-05-07 03:08 | 37.43072 | -75.99581 | 36952 ft | 513 kts | 34° |
| 2026-05-07 03:09 | 37.47970 | -75.93034 | 36934 ft | 514 kts | 35° |
| 2026-05-07 03:09 | 37.52913 | -75.86665 | 36924 ft | 502 kts | 27° |
| 2026-05-07 03:10 | 37.55656 | -75.84089 | 36919 ft | 485 kts | 18° |
| 2026-05-07 03:10 | 37.58529 | -75.81925 | 36918 ft | 480 kts | 16° |
| 2026-05-07 03:10 | 37.64280 | -75.77636 | 36913 ft | 481 kts | 16° |
| 2026-05-07 03:11 | 37.70035 | -75.73328 | 36923 ft | 480 kts | 17° |
| 2026-05-07 03:11 | 37.75778 | -75.69000 | 36926 ft | 480 kts | 17° |
| 2026-05-07 03:12 | 37.81520 | -75.64663 | 36939 ft | 481 kts | 17° |
| 2026-05-07 03:12 | 37.87242 | -75.60222 | 36934 ft | 486 kts | 19° |
| 2026-05-07 03:13 | 37.92852 | -75.55350 | 36930 ft | 491 kts | 22° |
| 2026-05-07 03:13 | 37.98348 | -75.50365 | 36903 ft | 490 kts | 22° |
| 2026-05-07 03:14 | 38.03938 | -75.45404 | 36914 ft | 490 kts | 21° |
| 2026-05-07 03:15 | 38.12449 | -75.38299 | 36902 ft | 486 kts | 18° |
| 2026-05-07 03:15 | 38.18180 | -75.33742 | 36915 ft | 486 kts | 18° |
| 2026-05-07 03:16 | 38.23908 | -75.29397 | 36928 ft | 472 kts | 10° |
| 2026-05-07 03:16 | 38.26913 | -75.27934 | 36922 ft | 453 kts | 0° |
| 2026-05-07 03:16 | 38.29929 | -75.27087 | 36916 ft | 437 kts | 353° |
| 2026-05-07 03:17 | 38.35936 | -75.25862 | 36909 ft | 438 kts | 354° |
| 2026-05-07 03:17 | 38.41954 | -75.24614 | 36963 ft | 439 kts | 353° |
| 2026-05-07 03:18 | 38.47986 | -75.23339 | 36945 ft | 440 kts | 353° |
| 2026-05-07 03:18 | 38.54028 | -75.22065 | 36931 ft | 440 kts | 353° |
| 2026-05-07 03:19 | 38.60076 | -75.20788 | 36922 ft | 440 kts | 353° |
| 2026-05-07 03:19 | 38.66121 | -75.19508 | 36927 ft | 440 kts | 354° |
| 2026-05-07 03:19 | 38.69117 | -75.18555 | 36906 ft | 461 kts | 5° |
| 2026-05-07 03:20 | 38.72140 | -75.16743 | 36905 ft | 487 kts | 18° |
| 2026-05-07 03:20 | 38.74945 | -75.14170 | 36903 ft | 500 kts | 24° |
| 2026-05-07 03:20 | 38.77707 | -75.11454 | 36903 ft | 501 kts | 24° |
| 2026-05-07 03:21 | 38.82302 | -75.06925 | 36897 ft | 502 kts | 24° |
| 2026-05-07 03:21 | 38.87844 | -75.01463 | 36942 ft | 502 kts | 24° |
| 2026-05-07 03:22 | 38.93386 | -74.96018 | 36926 ft | 502 kts | 24° |
| 2026-05-07 03:22 | 38.98926 | -74.90566 | 36910 ft | 502 kts | 24° |
| 2026-05-07 03:23 | 39.04462 | -74.85092 | 36952 ft | 502 kts | 23° |
| 2026-05-07 03:23 | 39.09989 | -74.79610 | 36895 ft | 502 kts | 24° |
| 2026-05-07 03:24 | 39.15429 | -74.73902 | 36902 ft | 507 kts | 26° |
| 2026-05-07 03:24 | 39.20807 | -74.67977 | 36903 ft | 509 kts | 27° |
| 2026-05-07 03:25 | 39.26190 | -74.62036 | 36888 ft | 509 kts | 26° |
| 2026-05-07 03:25 | 39.31594 | -74.56166 | 36882 ft | 508 kts | 26° |
| 2026-05-07 03:26 | 39.37029 | -74.50300 | 36879 ft | 509 kts | 26° |
| 2026-05-07 03:26 | 39.42420 | -74.44440 | 36907 ft | 511 kts | 26° |
| 2026-05-07 03:27 | 39.47856 | -74.38498 | 36888 ft | 512 kts | 26° |
| 2026-05-07 03:27 | 39.53294 | -74.32539 | 36865 ft | 513 kts | 26° |
| 2026-05-07 03:28 | 39.58736 | -74.26561 | 36889 ft | 513 kts | 26° |
| 2026-05-07 03:28 | 39.64190 | -74.20579 | 36898 ft | 513 kts | 26° |
| 2026-05-07 03:29 | 39.69637 | -74.14594 | 35507 ft | 517 kts | 27° |
| 2026-05-07 03:29 | 39.72417 | -74.11554 | 33881 ft | 529 kts | 29° |
| 2026-05-07 03:29 | 39.75239 | -74.08454 | 32489 ft | 531 kts | 30° |
| 2026-05-07 03:29 | 39.78037 | -74.05352 | 31322 ft | 528 kts | 31° |
| 2026-05-07 03:30 | 39.80852 | -74.02210 | 30287 ft | 523 kts | 31° |
| 2026-05-07 03:30 | 39.83621 | -73.99180 | 29099 ft | 514 kts | 26° |
| 2026-05-07 03:30 | 39.86584 | -73.96824 | 28105 ft | 491 kts | 18° |
| 2026-05-07 03:30 | 39.89560 | -73.94688 | 27134 ft | 482 kts | 18° |
| 2026-05-07 03:31 | 39.92456 | -73.92625 | 26227 ft | 474 kts | 18° |
| 2026-05-07 03:31 | 39.95332 | -73.90586 | 25337 ft | 465 kts | 18° |
| 2026-05-07 03:31 | 39.98165 | -73.88583 | 24476 ft | 457 kts | 18° |
| 2026-05-07 03:31 | 40.00943 | -73.86671 | 23694 ft | 444 kts | 13° |
| 2026-05-07 03:32 | 40.03781 | -73.85491 | 22811 ft | 418 kts | 1° |
| 2026-05-07 03:32 | 40.06595 | -73.84687 | 21855 ft | 413 kts | 1° |
| 2026-05-07 03:32 | 40.09396 | -73.83892 | 20944 ft | 407 kts | 2° |
| 2026-05-07 03:32 | 40.12147 | -73.83113 | 20064 ft | 402 kts | 2° |
| 2026-05-07 03:33 | 40.14867 | -73.82340 | 19220 ft | 398 kts | 3° |
| 2026-05-07 03:33 | 40.17556 | -73.81571 | 18393 ft | 393 kts | 4° |
| 2026-05-07 03:33 | 40.20215 | -73.80809 | 17518 ft | 389 kts | 4° |
| 2026-05-07 03:33 | 40.22849 | -73.80051 | 16592 ft | 386 kts | 4° |
| 2026-05-07 03:34 | 40.25460 | -73.79301 | 15704 ft | 383 kts | 5° |
| 2026-05-07 03:34 | 40.28024 | -73.78562 | 14857 ft | 381 kts | 5° |
| 2026-05-07 03:34 | 40.30608 | -73.77818 | 14026 ft | 378 kts | 5° |
| 2026-05-07 03:34 | 40.33169 | -73.77080 | 13163 ft | 376 kts | 5° |
| 2026-05-07 03:35 | 40.35702 | -73.76349 | 12322 ft | 371 kts | 6° |
| 2026-05-07 03:35 | 40.38208 | -73.75624 | 11508 ft | 365 kts | 6° |
| 2026-05-07 03:35 | 40.40674 | -73.74912 | 10757 ft | 359 kts | 5° |
| 2026-05-07 03:35 | 40.43064 | -73.74215 | 10426 ft | 341 kts | 5° |
| 2026-05-07 03:36 | 40.45323 | -73.73544 | 10033 ft | 327 kts | 4° |
| 2026-05-07 03:36 | 40.47519 | -73.72905 | 9430 ft | 321 kts | 4° |
| 2026-05-07 03:36 | 40.49685 | -73.72285 | 8782 ft | 317 kts | 4° |
| 2026-05-07 03:36 | 40.51823 | -73.71673 | 8143 ft | 312 kts | 4° |
| 2026-05-07 03:37 | 40.53899 | -73.71078 | 7589 ft | 306 kts | 5° |
| 2026-05-07 03:37 | 40.55998 | -73.70471 | 7071 ft | 303 kts | 5° |
| 2026-05-07 03:37 | 40.58013 | -73.69886 | 6576 ft | 300 kts | 5° |
| 2026-05-07 03:37 | 40.60052 | -73.69296 | 6069 ft | 300 kts | 5° |
| 2026-05-07 03:38 | 40.62084 | -73.68708 | 5626 ft | 299 kts | 5° |
| 2026-05-07 03:38 | 40.64117 | -73.68119 | 5261 ft | 296 kts | 5° |
| 2026-05-07 03:38 | 40.66114 | -73.67539 | 4880 ft | 292 kts | 6° |
| 2026-05-07 03:38 | 40.68088 | -73.66965 | 4505 ft | 289 kts | 6° |
| 2026-05-07 03:39 | 40.70060 | -73.66390 | 4047 ft | 288 kts | 7° |
| 2026-05-07 03:39 | 40.71976 | -73.65828 | 3880 ft | 276 kts | 7° |
| 2026-05-07 03:39 | 40.73800 | -73.65289 | 3757 ft | 262 kts | 7° |
| 2026-05-07 03:39 | 40.75537 | -73.64777 | 3637 ft | 249 kts | 7° |
| 2026-05-07 03:40 | 40.77186 | -73.64292 | 3535 ft | 237 kts | 6° |
| 2026-05-07 03:40 | 40.78759 | -73.63832 | 3431 ft | 227 kts | 6° |
| 2026-05-07 03:40 | 40.80264 | -73.63508 | 3335 ft | 209 kts | 349° |
| 2026-05-07 03:40 | 40.81548 | -73.64094 | 3200 ft | 188 kts | 316° |
| 2026-05-07 03:41 | 40.82299 | -73.65416 | 3087 ft | 178 kts | 288° |
| 2026-05-07 03:41 | 40.82415 | -73.66956 | 3038 ft | 164 kts | 262° |
| 2026-05-07 03:41 | 40.81996 | -73.68255 | 2996 ft | 153 kts | 236° |
| 2026-05-07 03:41 | 40.81200 | -73.69128 | 2985 ft | 147 kts | 212° |
| 2026-05-07 03:42 | 40.80194 | -73.69445 | 2991 ft | 151 kts | 186° |
| 2026-05-07 03:42 | 40.79159 | -73.69358 | 2988 ft | 149 kts | 183° |
| 2026-05-07 03:42 | 40.78136 | -73.69266 | 3015 ft | 147 kts | 184° |
| 2026-05-07 03:42 | 40.77120 | -73.69176 | 2929 ft | 147 kts | 184° |
| 2026-05-07 03:43 | 40.76078 | -73.69089 | 2528 ft | 152 kts | 182° |
| 2026-05-07 03:43 | 40.75033 | -73.68999 | 2229 ft | 149 kts | 182° |
| 2026-05-07 03:43 | 40.74007 | -73.68910 | 2043 ft | 149 kts | 182° |
| 2026-05-07 03:43 | 40.72987 | -73.68991 | 1893 ft | 143 kts | 202° |
| 2026-05-07 03:44 | 40.72115 | -73.69540 | 1744 ft | 139 kts | 218° |
| 2026-05-07 03:44 | 40.71272 | -73.70200 | 1564 ft | 140 kts | 218° |
| 2026-05-07 03:44 | 40.70445 | -73.70848 | 1371 ft | 141 kts | 217° |
| 2026-05-07 03:44 | 40.69592 | -73.71516 | 1190 ft | 141 kts | 217° |
| 2026-05-07 03:45 | 40.68762 | -73.72167 | 1004 ft | 140 kts | 217° |
| 2026-05-07 03:45 | 40.67920 | -73.72826 | 822 ft | 140 kts | 216° |
| 2026-05-07 03:45 | 40.67099 | -73.73469 | 647 ft | 139 kts | 214° |
| 2026-05-07 03:45 | 40.66264 | -73.74114 | 469 ft | 140 kts | 213° |
| 2026-05-07 03:46 | 40.65432 | -73.74783 | 267 ft | 139 kts | 212° |
| 2026-05-07 03:46 | 40.64600 | -73.75418 | 95 ft | 138 kts | 210° |
| 2026-05-07 03:46 | 40.63800 | -73.76048 | 25 ft | 123 kts | 210° |
| 2026-05-07 03:46 | 40.63207 | -73.76516 | 22 ft | 74 kts | 211° |
| 2026-05-07 03:47 | 40.63010 | -73.76738 | 21 ft | 24 kts | 230° |
| 2026-05-07 03:47 | 40.62930 | -73.76908 | 22 ft | 17 kts | 261° |
| 2026-05-07 03:47 | 40.62928 | -73.76930 | 21 ft | 0 kts | 262° |
| 2026-05-07 03:48 | 40.62941 | -73.76996 | 22 ft | 19 kts | 296° |
| 2026-05-07 03:48 | 40.63029 | -73.77187 | 21 ft | 27 kts | 300° |
| 2026-05-07 03:49 | 40.63122 | -73.77397 | 21 ft | 25 kts | 301° |
| 2026-05-07 03:49 | 40.63214 | -73.77600 | 23 ft | 26 kts | 301° |
| 2026-05-07 03:49 | 40.63310 | -73.77809 | 24 ft | 28 kts | 303° |
| 2026-05-07 03:49 | 40.63404 | -73.77920 | 21 ft | 7 kts | 26° |
| 2026-05-07 03:50 | 40.63488 | -73.77839 | 21 ft | 27 kts | 33° |
| 2026-05-07 03:50 | 40.63661 | -73.77702 | 20 ft | 29 kts | 30° |
| 2026-05-07 03:50 | 40.63781 | -73.77637 | 20 ft | 3 kts | 299° |
| 2026-05-07 03:50 | 40.63806 | -73.77722 | 22 ft | 19 kts | 321° |
| 2026-05-07 03:51 | 40.63934 | -73.77825 | 20 ft | 23 kts | 326° |
| 2026-05-07 03:51 | 40.64074 | -73.77879 | 20 ft | 21 kts | 10° |
| 2026-05-07 03:51 | 40.64207 | -73.77864 | 20 ft | 17 kts | 1° |